Time;durP1;ratioP1;P1;durP2;ratioP2;P2;SDS_P1;SDS_P2;PMS_P1;PMS_P2;Temp;Humidity;BMP_temperature;BMP_pressure;BME280_temperature;BME280_humidity;BME280_pressure;Samples;Min_cycle;Max_cycle;Signal;HPM_P1;HPM_P2
2023/03/24 00:02:22;;;;;;;4.97;2.55;;;;;;;12.70;82.92;99800.81;5115233;28;20027;-87
2023/03/24 00:04:51;;;;;;;4.75;2.28;;;;;;;12.98;82.02;99790.09;5115741;28;20035;-88
2023/03/24 00:07:18;;;;;;;4.13;2.30;;;;;;;13.05;81.11;99784.34;5111131;28;20103;-87
2023/03/24 00:09:44;;;;;;;8.68;2.85;;;;;;;13.06;80.88;99791.38;5130028;27;20077;-87
2023/03/24 00:12:12;;;;;;;4.47;2.40;;;;;;;13.14;81.25;99773.13;5132718;27;20031;-87
2023/03/24 00:14:38;;;;;;;5.38;2.55;;;;;;;13.17;80.48;99765.81;5121403;27;20128;-87
2023/03/24 00:17:13;;;;;;;3.53;2.42;;;;;;;13.14;80.92;99773.97;5127019;27;20023;-87
2023/03/24 00:19:39;;;;;;;5.93;2.63;;;;;;;13.15;80.41;99762.41;5139390;27;20019;-87
2023/03/24 00:22:07;;;;;;;5.25;2.60;;;;;;;13.33;79.75;99770.09;5123837;28;20429;-87
2023/03/24 00:24:33;;;;;;;3.05;2.05;;;;;;;13.21;79.83;99754.03;5123868;27;20046;-87
2023/03/24 00:26:59;;;;;;;6.60;3.22;;;;;;;13.38;79.14;99760.00;5137261;27;20036;-87
2023/03/24 00:29:25;;;;;;;3.90;2.33;;;;;;;13.42;79.16;99757.03;5124209;27;20486;-87
2023/03/24 00:31:51;;;;;;;5.32;2.50;;;;;;;13.27;79.87;99774.88;5127161;27;20049;-87
2023/03/24 00:34:20;;;;;;;4.32;2.85;;;;;;;13.39;79.33;99764.38;5123251;27;20073;-87
2023/03/24 00:36:47;;;;;;;3.78;2.50;;;;;;;13.37;79.27;99772.44;5139903;27;20561;-87
2023/03/24 00:39:16;;;;;;;2.70;2.30;;;;;;;13.36;79.77;99753.97;5124640;27;20113;-87
2023/03/24 00:41:43;;;;;;;2.72;2.40;;;;;;;13.25;80.10;99736.97;5142178;27;20070;-87
2023/03/24 00:44:16;;;;;;;3.70;2.60;;;;;;;13.52;78.66;99741.31;5125750;27;20058;-87
2023/03/24 00:46:54;;;;;;;3.17;2.53;;;;;;;13.26;79.88;99733.34;5119089;27;20083;-87
2023/03/24 00:49:48;;;;;;;3.72;2.30;;;;;;;13.31;79.91;99745.47;5127044;27;20610;-87
2023/03/24 00:52:19;;;;;;;2.78;2.35;;;;;;;13.30;79.77;99741.13;5129418;27;20070;-87
2023/03/24 00:54:46;;;;;;;3.25;2.30;;;;;;;13.33;79.55;99756.81;5126273;27;20035;-87
2023/03/24 00:57:13;;;;;;;3.30;2.22;;;;;;;13.41;80.07;99744.72;5116989;27;20031;-87
2023/03/24 00:59:41;;;;;;;4.88;2.22;;;;;;;13.39;79.43;99713.94;5120812;27;20474;-87
2023/03/24 01:02:10;;;;;;;2.42;2.22;;;;;;;13.35;79.95;99707.13;5129097;27;20682;-87
2023/03/24 01:04:38;;;;;;;3.50;2.10;;;;;;;13.25;80.20;99717.53;5127448;27;20462;-87
2023/03/24 01:07:06;;;;;;;2.08;1.67;;;;;;;13.34;79.96;99706.28;5128006;27;20584;-87
2023/03/24 01:09:32;;;;;;;4.10;2.10;;;;;;;13.32;80.53;99712.66;5125317;27;20082;-87
2023/03/24 01:11:58;;;;;;;2.83;2.55;;;;;;;13.25;80.74;99693.66;5122190;27;20027;-87
2023/03/24 01:14:23;;;;;;;2.50;2.22;;;;;;;13.32;81.02;99684.28;5122004;27;20028;-87
2023/03/24 01:16:49;;;;;;;4.93;2.40;;;;;;;13.24;81.41;99706.09;5116684;27;20032;-87
2023/03/24 01:19:15;;;;;;;2.30;2.10;;;;;;;13.17;84.08;99707.41;5129503;27;20023;-87
2023/03/24 01:21:41;;;;;;;2.85;2.05;;;;;;;13.31;82.44;99705.66;5121733;27;20059;-87
2023/03/24 01:24:07;;;;;;;3.53;1.98;;;;;;;13.36;83.85;99700.88;5119124;27;20457;-87
2023/03/24 01:26:33;;;;;;;4.97;2.40;;;;;;;13.11;83.79;99701.69;5130237;27;20516;-86
2023/03/24 01:28:58;;;;;;;3.20;2.22;;;;;;;13.11;85.04;99691.09;5119766;27;20058;-86
2023/03/24 01:31:23;;;;;;;3.75;2.33;;;;;;;13.01;85.32;99693.53;5121827;27;20019;-86
2023/03/24 01:33:48;;;;;;;3.17;2.20;;;;;;;12.91;86.41;99680.00;5117032;27;20481;-86
2023/03/24 01:36:14;;;;;;;4.38;2.80;;;;;;;12.92;87.75;99688.84;5125348;27;20042;-86
2023/03/24 01:38:39;;;;;;;4.32;2.75;;;;;;;12.92;87.06;99687.03;5127577;27;20019;-86
2023/03/24 01:41:05;;;;;;;2.55;2.33;;;;;;;12.97;86.28;99678.75;5125728;27;20385;-86
2023/03/24 01:43:33;;;;;;;3.25;2.50;;;;;;;12.88;87.17;99672.28;5125841;27;20489;-86
2023/03/24 01:46:08;;;;;;;3.50;2.40;;;;;;;13.10;85.91;99676.94;5111821;27;20027;-86
2023/03/24 01:48:52;;;;;;;5.72;2.45;;;;;;;13.11;85.25;99683.13;5131559;27;20027;-86
2023/03/24 01:51:17;;;;;;;2.55;2.22;;;;;;;13.08;85.57;99676.22;5129191;27;20408;-86
2023/03/24 01:53:54;;;;;;;2.40;2.07;;;;;;;13.07;85.37;99671.00;5120293;27;20030;-86
2023/03/24 01:56:21;;;;;;;3.47;2.35;;;;;;;13.05;85.77;99671.09;5130395;27;20551;-86
2023/03/24 01:58:52;;;;;;;4.13;2.80;;;;;;;13.01;86.33;99661.69;5114386;27;20270;-86
2023/03/24 02:01:18;;;;;;;2.70;2.28;;;;;;;13.09;85.30;99669.94;5124063;27;20027;-86
2023/03/24 02:03:44;;;;;;;4.68;2.72;;;;;;;13.15;84.88;99664.22;5124463;27;20467;-86
2023/03/24 02:06:12;;;;;;;2.67;2.42;;;;;;;13.27;84.24;99620.06;5125021;27;20478;-86
2023/03/24 02:08:51;;;;;;;4.45;2.47;;;;;;;13.37;84.34;99657.44;5118609;27;20026;-87
2023/03/24 02:11:17;;;;;;;4.57;2.80;;;;;;;13.33;85.06;99655.94;5116412;27;20038;-86
2023/03/24 02:13:42;;;;;;;5.68;2.70;;;;;;;13.09;85.77;99651.38;5119945;27;20026;-86
2023/03/24 02:16:12;;;;;;;3.60;2.33;;;;;;;13.08;87.17;99647.03;5116586;27;20082;-86
2023/03/24 02:19:11;;;;;;;4.65;2.42;;;;;;;13.08;87.23;99644.38;5122179;27;20498;-86
2023/03/24 02:21:42;;;;;;;5.03;3.00;;;;;;;13.05;86.99;99644.56;5130406;27;20570;-86
2023/03/24 02:24:37;;;;;;;3.53;2.63;;;;;;;13.16;86.48;99650.00;5115671;27;20035;-86
2023/03/24 02:27:21;;;;;;;5.15;2.78;;;;;;;13.32;85.68;99660.41;5123073;27;20034;-87
2023/03/24 02:30:06;;;;;;;5.03;2.78;;;;;;;13.08;86.79;99656.78;5113255;27;20027;-86
2023/03/24 02:32:56;;;;;;;3.60;2.88;;;;;;;13.06;87.39;99658.72;5119837;27;20023;-86
2023/03/24 02:36:06;;;;;;;3.22;2.45;;;;;;;13.27;86.75;99652.75;5119892;27;20031;-86
2023/03/24 02:38:37;;;;;;;3.05;2.58;;;;;;;13.38;85.23;99653.81;5115501;27;20015;-87
2023/03/24 02:41:32;;;;;;;3.63;2.80;;;;;;;13.42;85.42;99642.00;5119085;27;20493;-87
2023/03/24 02:44:21;;;;;;;6.82;3.00;;;;;;;13.27;85.24;99647.47;5126803;27;20478;-87
2023/03/24 02:47:00;;;;;;;3.72;2.92;;;;;;;13.25;86.67;99648.53;5132582;27;20035;-86
2023/03/24 02:49:58;;;;;;;4.15;2.88;;;;;;;13.28;86.29;99648.31;5124925;27;20067;-87
2023/03/24 02:52:44;;;;;;;4.20;3.00;;;;;;;12.97;87.66;99670.81;5120257;27;20041;-87
2023/03/24 02:55:15;;;;;;;3.60;2.90;;;;;;;12.96;86.95;99658.47;5126818;27;20016;-87
2023/03/24 02:57:51;;;;;;;2.45;2.25;;;;;;;13.01;86.75;99665.19;5124145;27;20034;-87
2023/03/24 03:00:31;;;;;;;3.58;3.22;;;;;;;13.07;86.43;99669.22;5121747;27;20028;-87
2023/03/24 03:03:07;;;;;;;3.25;2.40;;;;;;;13.08;86.48;99681.50;5122693;27;20389;-86
2023/03/24 03:05:36;;;;;;;3.80;2.97;;;;;;;13.06;86.20;99693.22;5122963;27;20027;-86
2023/03/24 03:08:05;;;;;;;5.05;2.90;;;;;;;13.18;85.53;99695.00;5121462;27;20027;-87
2023/03/24 03:10:39;;;;;;;3.08;2.78;;;;;;;13.20;85.21;99699.25;5113746;28;20052;-87
2023/03/24 03:13:10;;;;;;;3.15;2.28;;;;;;;13.27;83.68;99718.28;5126748;27;20049;-87
2023/03/24 03:15:41;;;;;;;4.32;2.80;;;;;;;13.27;82.47;99719.13;5121005;27;20028;-87
2023/03/24 03:18:16;;;;;;;3.67;2.50;;;;;;;13.26;82.53;99709.47;5119139;28;20027;-87
2023/03/24 03:20:49;;;;;;;2.35;2.15;;;;;;;13.02;82.23;99732.34;5115691;27;20092;-87
2023/03/24 03:23:19;;;;;;;2.95;2.50;;;;;;;12.96;82.22;99749.56;5122625;27;20033;-87
2023/03/24 03:25:50;;;;;;;2.22;2.05;;;;;;;13.01;80.45;99739.47;5122149;27;20034;-87
2023/03/24 03:28:20;;;;;;;2.55;1.80;;;;;;;13.14;78.43;99747.44;5112946;27;20478;-87
2023/03/24 03:30:53;;;;;;;1.98;1.85;;;;;;;13.11;78.34;99755.63;5112469;28;20281;-87
2023/03/24 03:33:24;;;;;;;;;;;;;;;12.85;79.91;99754.72;5133389;27;20028;-87
2023/03/24 03:35:57;;;;;;;1.15;1.02;;;;;;;12.68;76.24;99758.50;5121172;28;20006;-87
2023/03/24 03:38:53;;;;;;;1.58;1.00;;;;;;;12.51;77.16;99788.75;5123064;27;20023;-87
2023/03/24 03:41:19;;;;;;;4.28;1.20;;;;;;;12.36;76.53;99792.41;5122744;27;20036;-87
2023/03/24 03:43:47;;;;;;;1.35;1.10;;;;;;;12.28;76.34;99802.66;5135796;27;20030;-87
2023/03/24 03:46:14;;;;;;;3.22;1.20;;;;;;;12.13;75.27;99791.22;5117022;27;20038;-87
2023/03/24 03:48:40;;;;;;;3.30;1.10;;;;;;;12.06;76.38;99789.06;5113865;27;20043;-87
2023/03/24 03:51:06;;;;;;;2.08;1.52;;;;;;;12.06;75.98;99808.44;5113319;28;20016;-86
2023/03/24 03:53:46;;;;;;;2.05;1.00;;;;;;;11.98;76.21;99813.38;5121493;27;20026;-87
2023/03/24 03:56:17;;;;;;;3.80;1.23;;;;;;;11.99;76.25;99823.03;5117859;28;20031;-86
2023/03/24 03:58:45;;;;;;;1.75;1.15;;;;;;;11.92;76.10;99824.34;5110217;28;20039;-87
2023/03/24 04:01:14;;;;;;;4.45;1.30;;;;;;;11.93;75.39;99821.59;5120786;27;20046;-86
2023/03/24 04:03:52;;;;;;;2.97;1.73;;;;;;;11.88;76.77;99844.03;5114809;27;20762;-86
2023/03/24 04:07:14;;;;;;;8.98;3.10;;;;;;;11.83;75.81;99835.50;5116857;27;20050;-87
2023/03/24 04:09:54;;;;;;;10.02;4.10;;;;;;;11.69;74.80;99841.63;5083138;28;20091;-87
2023/03/24 04:12:34;;;;;;;6.50;3.10;;;;;;;11.61;73.99;99854.44;5089913;28;20052;-87
2023/03/24 04:15:08;;;;;;;5.93;3.30;;;;;;;11.59;73.73;99866.94;5105542;27;20051;-87
2023/03/24 04:18:13;;;;;;;6.53;2.75;;;;;;;11.52;74.28;99868.25;5120537;27;20039;-87
2023/03/24 04:20:52;;;;;;;8.00;2.85;;;;;;;11.51;74.33;99875.34;5139279;27;20028;-87
2023/03/24 04:23:49;;;;;;;9.57;2.92;;;;;;;11.38;73.98;99891.09;5130509;27;20039;-87
2023/03/24 04:26:26;;;;;;;6.43;2.47;;;;;;;11.33;75.10;99894.94;5110333;27;20422;-87
2023/03/24 04:29:16;;;;;;;4.82;2.17;;;;;;;11.33;75.19;99894.94;5124369;27;20030;-87
2023/03/24 04:32:19;;;;;;;7.65;2.25;;;;;;;11.31;75.13;99887.09;5115850;27;20102;-87
2023/03/24 04:34:53;;;;;;;4.90;1.77;;;;;;;11.20;75.14;99895.66;5107777;27;20040;-87
2023/03/24 04:37:24;;;;;;;5.32;1.92;;;;;;;11.07;75.58;99897.31;5120633;27;20039;-87
2023/03/24 04:39:57;;;;;;;2.40;1.20;;;;;;;11.13;75.37;99904.88;5137276;27;20519;-87
2023/03/24 04:42:36;;;;;;;8.13;2.20;;;;;;;11.08;75.06;99901.66;5122030;27;20028;-87
2023/03/24 04:45:04;;;;;;;8.57;1.73;;;;;;;11.14;74.83;99914.53;5113760;27;20378;-87
2023/03/24 04:47:37;;;;;;;5.07;1.60;;;;;;;11.05;75.12;99916.84;5125815;27;20019;-87
2023/03/24 04:50:09;;;;;;;6.63;1.70;;;;;;;11.05;74.75;99917.72;5136046;27;20535;-87
2023/03/24 04:52:35;;;;;;;6.22;1.98;;;;;;;11.03;74.52;99913.44;5129021;27;20474;-87
2023/03/24 04:55:04;;;;;;;6.40;1.55;;;;;;;10.98;75.16;99919.00;5129911;27;20023;-87
2023/03/24 04:57:29;;;;;;;9.10;2.10;;;;;;;10.92;75.04;99919.34;5144918;27;20015;-87
2023/03/24 04:59:54;;;;;;;4.70;1.63;;;;;;;10.90;75.44;99913.28;5130965;27;20038;-87
2023/03/24 05:02:20;;;;;;;6.72;2.63;;;;;;;10.80;75.91;99922.66;5125571;27;20781;-87
2023/03/24 05:04:46;;;;;;;4.72;2.00;;;;;;;10.88;75.33;99931.88;5126721;27;20031;-87
2023/03/24 05:07:11;;;;;;;4.97;2.00;;;;;;;10.75;75.78;99932.66;5129332;27;20019;-87
2023/03/24 05:09:36;;;;;;;7.40;2.17;;;;;;;10.76;75.18;99929.06;5131261;27;20235;-87
2023/03/24 05:12:02;;;;;;;6.15;2.63;;;;;;;10.74;74.99;99934.44;5122337;27;20027;-87
2023/03/24 05:14:27;;;;;;;8.57;2.60;;;;;;;10.75;74.39;99928.22;5129854;27;20038;-87
2023/03/24 05:16:52;;;;;;;8.38;2.95;;;;;;;10.77;74.91;99947.50;5119653;27;20030;-87
2023/03/24 05:19:18;;;;;;;8.80;2.70;;;;;;;10.69;74.79;99942.63;5122927;27;20023;-87
2023/03/24 05:21:43;;;;;;;11.07;3.30;;;;;;;10.73;75.19;99961.81;5137220;27;20106;-87
2023/03/24 05:24:08;;;;;;;11.15;3.08;;;;;;;10.59;75.56;99962.56;5126198;27;20474;-87
2023/03/24 05:26:34;;;;;;;6.72;2.70;;;;;;;10.48;75.90;99957.84;5126219;27;20027;-87
2023/03/24 05:28:59;;;;;;;6.60;2.92;;;;;;;10.48;76.08;99967.56;5117420;27;20027;-87
2023/03/24 05:31:25;;;;;;;4.82;2.75;;;;;;;10.46;76.53;99964.16;5116110;27;20020;-87
2023/03/24 05:33:51;;;;;;;9.05;2.80;;;;;;;10.50;76.59;99981.56;5122394;27;20520;-87
2023/03/24 05:36:16;;;;;;;10.23;3.03;;;;;;;10.47;76.82;99973.78;5114791;27;20027;-87
2023/03/24 05:38:41;;;;;;;7.13;3.28;;;;;;;10.46;76.89;99978.22;5120786;27;20543;-87
2023/03/24 05:41:07;;;;;;;6.00;2.17;;;;;;;10.48;76.76;99975.50;5126428;27;20537;-87
2023/03/24 05:43:32;;;;;;;8.20;2.22;;;;;;;10.43;76.87;99975.75;5126035;27;20025;-87
2023/03/24 05:45:59;;;;;;;7.85;2.17;;;;;;;10.52;76.38;99974.41;5129101;27;20023;-87
2023/03/24 05:48:24;;;;;;;13.73;2.75;;;;;;;10.57;75.95;99990.00;5120227;27;20026;-87
2023/03/24 05:50:51;;;;;;;5.68;1.98;;;;;;;10.64;75.71;99992.25;5127903;27;20387;-87
2023/03/24 05:53:16;;;;;;;7.28;2.22;;;;;;;10.54;76.45;100000.75;5119418;27;20019;-87
2023/03/24 05:55:41;;;;;;;5.47;1.88;;;;;;;10.57;76.28;100001.44;5127084;27;20034;-87
2023/03/24 05:58:07;;;;;;;4.53;2.17;;;;;;;10.51;76.42;99996.50;5134973;27;20023;-87
2023/03/24 06:00:32;;;;;;;13.88;2.75;;;;;;;10.58;75.81;99992.56;5125254;27;20031;-86
2023/03/24 06:02:59;;;;;;;8.32;2.28;;;;;;;10.57;75.43;99992.66;5117543;27;20031;-87
2023/03/24 06:05:25;;;;;;;13.00;2.63;;;;;;;10.64;75.54;99994.06;5121229;27;20382;-87
2023/03/24 06:07:57;;;;;;;8.98;2.20;;;;;;;10.68;75.00;100004.38;5122458;27;20564;-87
2023/03/24 06:10:25;;;;;;;10.00;2.13;;;;;;;10.69;75.15;99998.16;5127838;27;20371;-87
2023/03/24 06:12:50;;;;;;;7.03;2.03;;;;;;;10.70;74.49;100005.13;5128079;27;20054;-87
2023/03/24 06:15:16;;;;;;;10.70;2.47;;;;;;;10.69;74.28;100006.06;5117709;27;20429;-87
2023/03/24 06:17:43;;;;;;;10.88;2.90;;;;;;;10.68;74.59;99998.25;5124504;27;20043;-87
2023/03/24 06:20:14;;;;;;;7.45;2.03;;;;;;;10.61;74.94;99981.84;5116526;27;20032;-87
2023/03/24 06:22:41;;;;;;;10.02;2.30;;;;;;;10.72;74.45;100010.31;5145310;27;20489;-87
2023/03/24 06:25:08;;;;;;;11.27;1.95;;;;;;;10.71;74.29;100014.75;5113909;27;20104;-86
2023/03/24 06:27:34;;;;;;;8.38;1.90;;;;;;;10.78;74.12;100022.38;5129284;27;20121;-87
2023/03/24 06:30:00;;;;;;;9.27;1.95;;;;;;;10.84;73.34;100025.53;5125189;27;20042;-87
2023/03/24 06:32:25;;;;;;;8.27;2.00;;;;;;;10.89;73.57;100023.50;5121182;27;20027;-87
2023/03/24 06:34:51;;;;;;;9.70;1.95;;;;;;;10.89;73.16;100020.00;5120130;27;20132;-86
2023/03/24 06:37:16;;;;;;;10.60;2.10;;;;;;;10.95;73.23;100032.88;5124062;27;20548;-86
2023/03/24 06:39:42;;;;;;;9.60;1.63;;;;;;;10.87;73.16;100041.25;5122084;27;20034;-87
2023/03/24 06:42:07;;;;;;;11.13;2.15;;;;;;;10.88;72.73;100039.44;5116599;27;20039;-86
2023/03/24 06:44:32;;;;;;;8.15;2.03;;;;;;;10.86;73.16;100028.09;5128114;27;20063;-87
2023/03/24 06:46:58;;;;;;;3.55;1.58;;;;;;;10.90;72.78;100029.63;5120199;27;20485;-87
2023/03/24 06:49:23;;;;;;;8.45;1.80;;;;;;;10.98;72.84;100044.16;5119303;27;20067;-86
2023/03/24 06:51:48;;;;;;;7.82;1.80;;;;;;;11.02;72.57;100034.25;5128901;27;20027;-87
2023/03/24 06:54:14;;;;;;;9.27;1.88;;;;;;;11.13;73.19;100039.81;5114405;27;20023;-87
2023/03/24 06:56:40;;;;;;;8.30;2.10;;;;;;;11.16;72.81;100038.78;5146210;27;20503;-87
2023/03/24 06:59:05;;;;;;;5.20;1.58;;;;;;;11.20;72.61;100046.47;5111474;27;20027;-86
2023/03/24 07:01:33;;;;;;;15.98;2.15;;;;;;;11.24;72.57;100049.81;5128993;27;20524;-86
2023/03/24 07:03:59;;;;;;;11.40;2.40;;;;;;;11.28;72.59;100042.53;5133512;27;20439;-87
2023/03/24 07:06:24;;;;;;;12.18;2.25;;;;;;;11.31;72.46;100055.59;5131787;27;20023;-86
2023/03/24 07:08:50;;;;;;;10.77;2.10;;;;;;;11.41;72.14;100038.25;5121152;27;20500;-87
2023/03/24 07:11:16;;;;;;;13.80;2.42;;;;;;;11.39;72.24;100053.38;5121127;27;20062;-87
2023/03/24 07:13:41;;;;;;;11.23;2.15;;;;;;;11.46;72.09;100054.72;5119338;27;20035;-87
2023/03/24 07:16:07;;;;;;;8.40;1.85;;;;;;;11.32;72.72;100047.56;5119511;27;20445;-87
2023/03/24 07:18:32;;;;;;;8.93;1.83;;;;;;;11.49;72.30;100055.44;5122593;27;20042;-87
2023/03/24 07:20:58;;;;;;;11.45;2.17;;;;;;;11.48;71.25;100045.78;5123661;28;20390;-87
2023/03/24 07:23:24;;;;;;;13.13;2.45;;;;;;;11.55;71.62;100062.16;5125320;27;20031;-87
2023/03/24 07:25:50;;;;;;;13.18;2.25;;;;;;;11.62;71.50;100073.28;5128507;27;20493;-87
2023/03/24 07:28:15;;;;;;;8.30;1.73;;;;;;;11.66;71.19;100072.16;5130043;27;20025;-87
2023/03/24 07:30:41;;;;;;;10.48;2.03;;;;;;;11.72;71.04;100066.50;5118168;27;20895;-87
2023/03/24 07:33:09;;;;;;;7.88;1.95;;;;;;;11.73;70.82;100069.06;5126601;27;20029;-87
2023/03/24 07:35:35;;;;;;;5.68;1.30;;;;;;;11.85;70.49;100072.00;5125996;27;20060;-88
2023/03/24 07:38:00;;;;;;;9.90;2.15;;;;;;;11.94;70.69;100071.47;5125152;27;20027;-88
2023/03/24 07:40:26;;;;;;;8.60;1.80;;;;;;;11.98;69.92;100067.66;5129881;27;20027;-88
2023/03/24 07:42:52;;;;;;;10.50;1.92;;;;;;;12.11;69.64;100086.34;5126450;27;20397;-87
2023/03/24 07:45:18;;;;;;;14.93;2.10;;;;;;;12.08;70.54;100062.72;5124204;27;20028;-87
2023/03/24 07:47:45;;;;;;;8.48;1.98;;;;;;;12.20;69.81;100085.81;5125040;27;20037;-87
2023/03/24 07:50:12;;;;;;;11.25;1.95;;;;;;;12.22;69.72;100078.66;5120884;27;20134;-87
2023/03/24 07:52:39;;;;;;;12.20;2.53;;;;;;;12.28;70.17;100088.03;5129113;27;20494;-87
2023/03/24 07:55:12;;;;;;;10.38;2.53;;;;;;;12.44;69.09;100084.34;5124705;27;20042;-87
2023/03/24 07:57:44;;;;;;;13.13;1.83;;;;;;;12.48;69.49;100087.69;5120722;27;20039;-87
2023/03/24 08:00:20;;;;;;;11.10;2.27;;;;;;;12.82;69.25;100097.06;5118945;27;20031;-87
2023/03/24 08:02:47;;;;;;;14.07;2.42;;;;;;;12.93;68.56;100101.75;5115210;27;20102;-87
2023/03/24 08:05:14;;;;;;;11.13;1.98;;;;;;;13.14;67.56;100105.69;5120620;27;20085;-87
2023/03/24 08:07:44;;;;;;;8.32;2.03;;;;;;;13.42;68.07;100102.19;5135402;27;20051;-87
2023/03/24 08:10:11;;;;;;;12.60;2.97;;;;;;;13.49;66.89;100110.63;5123396;27;20130;-87
2023/03/24 08:12:36;;;;;;;7.95;1.83;;;;;;;13.54;66.12;100111.19;5133415;27;20714;-87
2023/03/24 08:15:02;;;;;;;12.55;2.40;;;;;;;13.51;64.57;100106.91;5133169;27;20027;-87
2023/03/24 08:17:28;;;;;;;11.05;2.42;;;;;;;13.42;64.92;100104.84;5116959;27;20015;-87
2023/03/24 08:19:53;;;;;;;6.68;1.85;;;;;;;13.30;66.05;100118.91;5127669;27;20545;-86
2023/03/24 08:22:19;;;;;;;7.07;2.15;;;;;;;13.22;66.15;100126.50;5127456;27;20042;-86
2023/03/24 08:24:44;;;;;;;8.07;1.88;;;;;;;13.13;66.05;100122.59;5130329;27;20019;-86
2023/03/24 08:27:09;;;;;;;8.82;2.00;;;;;;;13.16;65.56;100134.81;5113886;27;20024;-86
2023/03/24 08:29:34;;;;;;;8.75;2.30;;;;;;;13.39;65.28;100128.97;5127859;27;20067;-86
2023/03/24 08:32:00;;;;;;;7.32;2.40;;;;;;;13.72;64.54;100125.09;5130462;27;20019;-86
2023/03/24 08:34:27;;;;;;;6.30;2.00;;;;;;;14.08;64.50;100129.78;5121792;27;20075;-87
2023/03/24 08:36:52;;;;;;;9.82;2.05;;;;;;;14.25;62.81;100142.81;5127039;27;20020;-86
2023/03/24 08:39:19;;;;;;;8.13;2.40;;;;;;;14.05;62.76;100132.66;5123284;27;20028;-85
2023/03/24 08:41:45;;;;;;;6.35;1.67;;;;;;;14.29;61.98;100138.16;5126332;27;20074;-86
2023/03/24 08:44:10;;;;;;;8.07;2.58;;;;;;;14.37;62.24;100140.31;5131692;27;20027;-86
2023/03/24 08:46:36;;;;;;;8.95;2.20;;;;;;;14.09;61.55;100150.13;5118803;27;20016;-86
2023/03/24 08:49:02;;;;;;;7.10;2.13;;;;;;;14.10;61.86;100156.28;5137385;27;20035;-86
2023/03/24 08:51:28;;;;;;;8.23;2.35;;;;;;;13.91;62.15;100144.19;5126905;27;20023;-85
2023/03/24 08:53:54;;;;;;;8.60;2.00;;;;;;;13.98;62.86;100144.63;5127581;27;20068;-86
2023/03/24 08:56:20;;;;;;;7.85;2.42;;;;;;;13.80;62.93;100138.72;5117966;27;20020;-86
2023/03/24 08:58:50;;;;;;;9.18;2.47;;;;;;;13.51;61.83;100129.97;5120781;27;20027;-86
2023/03/24 09:01:17;;;;;;;8.75;2.55;;;;;;;13.29;63.00;100154.38;5121467;27;20491;-87
2023/03/24 09:03:43;;;;;;;8.82;1.77;;;;;;;13.34;63.22;100156.75;5128646;27;20030;-86
2023/03/24 09:06:09;;;;;;;8.82;1.90;;;;;;;13.37;63.04;100149.44;5133344;27;20064;-86
2023/03/24 09:08:35;;;;;;;7.18;2.05;;;;;;;13.19;63.61;100156.69;5126427;27;20031;-86
2023/03/24 09:11:00;;;;;;;9.95;2.60;;;;;;;13.12;63.53;100155.38;5123684;27;20040;-86
2023/03/24 09:13:25;;;;;;;7.68;2.00;;;;;;;13.08;64.80;100158.31;5112493;27;20023;-86
2023/03/24 09:15:53;;;;;;;7.53;2.45;;;;;;;13.07;64.34;100160.13;5119374;27;20077;-86
2023/03/24 09:18:20;;;;;;;9.75;2.20;;;;;;;13.38;64.24;100156.47;5133704;27;20477;-86
2023/03/24 09:20:46;;;;;;;8.38;2.55;;;;;;;13.56;63.31;100154.44;5124526;27;20480;-86
2023/03/24 09:23:12;;;;;;;9.95;2.00;;;;;;;14.42;61.97;100168.31;5126495;27;20042;-86
2023/03/24 09:25:37;;;;;;;10.38;2.28;;;;;;;15.16;59.64;100163.31;5132240;27;20513;-86
2023/03/24 09:28:03;;;;;;;11.80;2.47;;;;;;;15.15;58.63;100172.22;5128850;27;20382;-86
2023/03/24 09:30:28;;;;;;;8.80;2.15;;;;;;;14.91;58.54;100172.13;5133036;27;20059;-86
2023/03/24 09:32:57;;;;;;;6.95;2.00;;;;;;;14.43;59.03;100167.34;5117526;27;20024;-86
2023/03/24 09:35:23;;;;;;;5.65;2.25;;;;;;;13.94;61.62;100183.00;5126321;27;20481;-86
2023/03/24 09:37:49;;;;;;;7.40;2.13;;;;;;;13.51;64.85;100183.09;5137090;27;20034;-86
2023/03/24 09:40:27;;;;;;;9.10;2.30;;;;;;;13.38;66.04;100184.78;5129293;27;20031;-86
2023/03/24 09:42:59;;;;;;;9.68;2.25;;;;;;;13.31;67.20;100189.63;5128892;27;20488;-86
2023/03/24 09:45:25;;;;;;;;;;;;;;;13.57;65.70;100189.81;5132072;27;20026;-86
2023/03/24 09:48:00;;;;;;;9.48;2.03;;;;;;;14.37;63.96;100201.47;5138624;27;20365;-86
2023/03/24 09:50:34;;;;;;;8.68;1.83;;;;;;;14.61;62.75;100188.38;5129792;27;20034;-86
2023/03/24 09:53:07;;;;;;;5.25;2.00;;;;;;;14.19;62.68;100184.94;5123481;27;20040;-86
2023/03/24 09:55:38;;;;;;;5.60;1.95;;;;;;;14.19;62.69;100190.25;5114468;27;20023;-86
2023/03/24 09:58:07;;;;;;;7.72;2.67;;;;;;;14.26;61.55;100197.69;5108161;27;20095;-86
2023/03/24 10:00:33;;;;;;;7.05;2.53;;;;;;;14.00;60.43;100198.56;5116518;27;20031;-86
2023/03/24 10:03:09;;;;;;;7.35;2.60;;;;;;;13.99;63.35;100199.53;5130199;27;20057;-86
2023/03/24 10:05:44;;;;;;;8.00;2.47;;;;;;;14.89;60.28;100198.00;5124335;27;20026;-86
2023/03/24 10:08:29;;;;;;;8.65;2.20;;;;;;;15.31;59.42;100194.19;5119602;27;20105;-86
2023/03/24 10:11:22;;;;;;;7.13;2.28;;;;;;;14.97;60.00;100201.00;5123317;27;20498;-88
2023/03/24 10:13:57;;;;;;;11.90;2.42;;;;;;;14.56;60.61;100204.66;5120724;27;20027;-88
2023/03/24 10:16:25;;;;;;;7.75;2.35;;;;;;;14.29;61.64;100197.50;5118518;27;20027;-89
2023/03/24 10:19:01;;;;;;;11.80;2.50;;;;;;;14.17;61.53;100202.75;5122750;27;20526;-87
2023/03/24 10:21:27;;;;;;;10.75;2.20;;;;;;;14.01;61.51;100206.44;5125022;27;20026;-87
2023/03/24 10:24:00;;;;;;;8.10;2.70;;;;;;;14.13;60.84;100199.47;5126406;27;20076;-87
2023/03/24 10:26:38;;;;;;;7.90;1.88;;;;;;;14.30;60.58;100201.88;5117999;27;20024;-87
2023/03/24 10:29:28;;;;;;;4.28;1.83;;;;;;;14.38;60.24;100201.38;5137884;27;20452;-86
2023/03/24 10:32:22;;;;;;;8.35;1.88;;;;;;;14.23;59.69;100195.25;5109916;27;20670;-87
2023/03/24 10:34:53;;;;;;;7.78;2.15;;;;;;;14.21;60.19;100201.63;5116258;27;20386;-87
2023/03/24 10:37:19;;;;;;;7.88;1.88;;;;;;;15.00;58.16;100196.28;5118679;27;20498;-86
2023/03/24 10:39:44;;;;;;;8.45;1.90;;;;;;;15.30;55.94;100198.66;5123348;27;20067;-86
2023/03/24 10:42:17;;;;;;;5.60;1.98;;;;;;;16.38;54.98;100188.25;5126453;27;20106;-86
2023/03/24 10:44:43;;;;;;;6.07;1.48;;;;;;;17.71;50.82;100191.28;5118539;27;20081;-87
2023/03/24 10:47:12;;;;;;;10.70;2.28;;;;;;;17.65;49.18;100184.63;5122942;27;20570;-87
2023/03/24 10:49:50;;;;;;;5.60;2.17;;;;;;;17.25;50.60;100186.91;5122678;27;20475;-86
2023/03/24 10:52:16;;;;;;;7.15;1.83;;;;;;;16.73;52.96;100191.78;5156016;27;20042;-87
2023/03/24 10:54:53;;;;;;;8.70;2.10;;;;;;;16.35;53.37;100208.00;5128967;27;20414;-86
2023/03/24 10:57:18;;;;;;;4.72;1.70;;;;;;;15.75;52.92;100201.69;5131616;27;20027;-87
2023/03/24 10:59:53;;;;;;;5.57;1.70;;;;;;;15.61;55.01;100193.81;5129282;27;20083;-87
2023/03/24 11:02:29;;;;;;;7.82;1.90;;;;;;;15.76;54.95;100194.53;5127305;27;20062;-87
2023/03/24 11:04:55;;;;;;;1.92;1.38;;;;;;;16.00;54.51;100194.59;5130522;27;20104;-88
2023/03/24 11:07:23;;;;;;;7.15;1.80;;;;;;;16.51;52.38;100199.72;5116900;27;20457;-89
2023/03/24 11:10:08;;;;;;;9.98;1.77;;;;;;;16.78;52.86;100184.28;5124154;27;20043;-88
2023/03/24 11:12:53;;;;;;;6.10;1.83;;;;;;;17.84;49.69;100182.19;5125755;27;20386;-89
2023/03/24 11:15:27;;;;;;;9.70;2.22;;;;;;;17.44;48.11;100179.19;5128653;27;20031;-89
2023/03/24 11:17:58;;;;;;;4.18;1.50;;;;;;;18.05;49.36;100186.78;5119580;27;21327;-90
2023/03/24 11:20:33;;;;;;;8.68;2.17;;;;;;;17.56;49.53;100194.22;5129310;27;20792;-89
2023/03/24 11:23:24;;;;;;;11.68;2.22;;;;;;;17.04;50.94;100194.78;5117497;27;20061;-90
2023/03/24 11:26:14;;;;;;;5.00;1.83;;;;;;;16.85;51.49;100194.53;5117938;28;20042;-89
2023/03/24 11:29:06;;;;;;;9.20;2.38;;;;;;;16.52;51.97;100193.41;5124598;27;20070;-87
2023/03/24 11:31:37;;;;;;;3.30;1.60;;;;;;;16.67;51.82;100176.22;5109856;27;20084;-88
2023/03/24 11:34:12;;;;;;;8.20;2.08;;;;;;;16.57;51.89;100172.56;5117348;28;20102;-87
2023/03/24 11:36:41;;;;;;;9.55;1.92;;;;;;;16.71;52.15;100177.69;5127868;27;20454;-87
2023/03/24 11:39:18;;;;;;;9.70;2.10;;;;;;;16.24;51.19;100183.94;5116701;27;20051;-86
2023/03/24 11:42:09;;;;;;;7.47;2.30;;;;;;;16.15;51.68;100185.47;5126994;28;20092;-86
2023/03/24 11:44:37;;;;;;;6.65;1.83;;;;;;;15.84;52.06;100181.53;5129844;28;20034;-85
2023/03/24 11:47:32;;;;;;;7.47;1.75;;;;;;;15.71;53.56;100197.53;5124417;27;20038;-85